createdAt,value
2019-05-03T00:02:02.009Z,11.46
2019-05-03T00:04:31.593Z,11.42
2019-05-03T00:06:59.978Z,11.38
2019-05-03T00:09:28.379Z,11.36
2019-05-03T00:11:56.763Z,11.33
2019-05-03T00:14:25.655Z,11.31
2019-05-03T00:16:54.121Z,11.31
2019-05-03T00:19:22.524Z,11.31
2019-05-03T00:21:52.597Z,11.31
2019-05-03T00:24:22.600Z,11.31
2019-05-03T00:26:51.627Z,11.30
2019-05-03T00:29:21.868Z,11.29
2019-05-03T00:31:51.649Z,11.30
2019-05-03T00:34:32.352Z,11.28
2019-05-03T00:37:14.105Z,11.27
2019-05-03T00:39:47.071Z,11.26
2019-05-03T00:42:15.459Z,11.25
2019-05-03T00:44:43.859Z,11.22
2019-05-03T00:47:12.625Z,11.23
2019-05-03T00:49:42.591Z,11.25
2019-05-03T00:52:11.672Z,11.24
2019-05-03T00:54:42.232Z,11.24
2019-05-03T00:57:12.014Z,11.24
2019-05-03T00:59:42.007Z,11.22
2019-05-03T01:02:11.858Z,11.20
2019-05-03T01:04:42.558Z,11.20
2019-05-03T01:07:11.745Z,11.21
2019-05-03T01:09:42.290Z,11.22
2019-05-03T01:12:12.462Z,11.20
2019-05-03T01:14:42.151Z,11.20
2019-05-03T01:17:11.726Z,11.19
2019-05-03T01:19:40.179Z,11.17
2019-05-03T01:22:08.560Z,11.13
2019-05-03T01:24:36.951Z,11.10
2019-05-03T01:27:05.342Z,11.09
2019-05-03T01:29:33.748Z,11.08
2019-05-03T01:32:02.459Z,11.06
2019-05-03T01:34:32.595Z,11.05
2019-05-03T01:37:02.584Z,11.06
2019-05-03T01:39:31.640Z,11.08
2019-05-03T01:42:00.227Z,11.08
2019-05-03T01:44:28.612Z,11.06
2019-05-03T01:46:58.657Z,11.06
2019-05-03T01:49:42.575Z,11.05
2019-05-03T01:52:14.795Z,11.01
2019-05-03T01:54:43.194Z,10.99
2019-05-03T01:57:11.693Z,11.00
2019-05-03T01:59:40.053Z,10.99
2019-05-03T02:02:26.479Z,11.01
2019-05-03T02:05:15.078Z,10.99
2019-05-03T02:07:43.469Z,11.00
2019-05-03T02:10:12.196Z,11.00
2019-05-03T02:12:41.669Z,11.01
2019-05-03T02:15:11.926Z,11.01
2019-05-03T02:17:42.506Z,11.01
2019-05-03T02:20:12.439Z,11.00
2019-05-03T02:22:42.606Z,10.98
2019-05-03T02:25:12.432Z,10.99
2019-05-03T02:27:42.328Z,10.98
2019-05-03T02:30:14.100Z,10.98
2019-05-03T02:32:43.987Z,10.97
2019-05-03T02:35:14.013Z,10.98
2019-05-03T02:37:43.969Z,10.98
2019-05-03T02:40:13.198Z,10.99
2019-05-03T02:42:46.105Z,10.99
2019-05-03T02:45:18.841Z,10.99
2019-05-03T02:47:48.870Z,11.00
2019-05-03T02:50:18.646Z,10.97
2019-05-03T02:52:47.029Z,10.96
2019-05-03T02:55:16.259Z,10.97
2019-05-03T02:57:46.503Z,10.94
2019-05-03T03:00:16.644Z,10.94
2019-05-03T03:02:45.781Z,10.94
2019-05-03T03:05:16.714Z,10.94
2019-05-03T03:07:46.694Z,10.94
2019-05-03T03:10:16.348Z,10.94
2019-05-03T03:12:46.798Z,10.90
2019-05-03T03:15:16.317Z,10.88
2019-05-03T03:17:47.043Z,10.87
2019-05-03T03:20:16.405Z,10.85
2019-05-03T03:22:45.628Z,10.80
2019-05-03T03:25:17.635Z,10.79
2019-05-03T03:27:47.903Z,10.75
2019-05-03T03:30:37.971Z,10.76
2019-05-03T03:33:08.934Z,10.72
2019-05-03T03:35:38.914Z,10.66
2019-05-03T03:38:08.015Z,10.62
2019-05-03T03:40:37.988Z,10.62
2019-05-03T03:43:08.258Z,10.62
2019-05-03T03:45:38.701Z,10.61
2019-05-03T03:48:10.450Z,10.61
2019-05-03T03:50:41.846Z,10.60
2019-05-03T03:53:12.281Z,10.61
2019-05-03T03:55:45.661Z,10.60
2019-05-03T03:58:17.670Z,10.61
2019-05-03T04:00:46.194Z,10.61
2019-05-03T04:03:15.741Z,10.59
2019-05-03T04:05:46.784Z,10.60
2019-05-03T04:08:16.172Z,10.59
2019-05-03T04:10:46.416Z,10.56
2019-05-03T04:13:16.133Z,10.57
2019-05-03T04:15:46.231Z,10.53
2019-05-03T04:18:32.594Z,10.51
2019-05-03T04:21:01.049Z,10.45
2019-05-03T04:23:31.922Z,10.44
2019-05-03T04:26:00.818Z,10.43
2019-05-03T04:28:29.482Z,10.41
2019-05-03T04:30:57.884Z,10.40
2019-05-03T04:33:27.060Z,10.40
2019-05-03T04:35:55.851Z,10.33
2019-05-03T04:38:25.779Z,10.29
2019-05-03T04:40:56.161Z,10.22
2019-05-03T04:43:26.442Z,10.21
2019-05-03T04:46:06.694Z,10.18
2019-05-03T04:48:35.823Z,10.19
2019-05-03T04:51:05.914Z,10.16
2019-05-03T04:53:36.225Z,10.13
2019-05-03T04:56:05.720Z,10.12
2019-05-03T04:58:36.367Z,10.07
2019-05-03T05:01:06.209Z,10.05
2019-05-03T05:03:36.124Z,9.97
2019-05-03T05:06:06.238Z,9.94
2019-05-03T05:08:35.791Z,9.90
2019-05-03T05:11:05.809Z,9.84
2019-05-03T05:13:35.612Z,9.80
2019-05-03T05:16:05.892Z,9.83
2019-05-03T05:18:36.266Z,9.79
2019-05-03T05:21:06.368Z,9.71
2019-05-03T05:23:35.452Z,9.64
2019-05-03T05:26:11.196Z,9.60
2019-05-03T05:28:41.217Z,9.57
2019-05-03T05:31:09.608Z,9.47
2019-05-03T05:33:37.993Z,9.44
2019-05-03T05:36:06.383Z,9.42
2019-05-03T05:38:34.820Z,9.40
2019-05-03T05:41:05.155Z,9.40
2019-05-03T05:43:33.279Z,9.40
2019-05-03T05:46:01.727Z,9.41
2019-05-03T05:48:34.951Z,9.43
2019-05-03T05:51:04.438Z,9.45
2019-05-03T05:53:32.891Z,9.46
2019-05-03T05:56:11.716Z,9.48
2019-05-03T05:58:41.827Z,9.54
2019-05-03T06:01:14.473Z,9.56
2019-05-03T06:03:44.765Z,9.58
2019-05-03T06:06:15.289Z,9.58
2019-05-03T06:08:45.359Z,9.58
2019-05-03T06:11:30.427Z,9.58
2019-05-03T06:14:09.454Z,9.58
2019-05-03T06:16:39.489Z,9.59
2019-05-03T06:19:15.512Z,9.60
2019-05-03T06:22:00.522Z,9.59
2019-05-03T06:24:46.678Z,9.61
2019-05-03T06:27:16.715Z,9.64
2019-05-03T06:29:46.495Z,9.65
2019-05-03T06:32:22.590Z,9.64
2019-05-03T06:34:50.982Z,9.65
2019-05-03T06:37:21.024Z,9.63
2019-05-03T06:39:49.474Z,9.61
2019-05-03T06:42:19.403Z,9.64
2019-05-03T06:44:47.976Z,9.67
2019-05-03T06:47:16.367Z,9.68
2019-05-03T06:49:48.325Z,9.71
2019-05-03T06:52:14.909Z,9.71
2019-05-03T06:54:44.920Z,9.73
2019-05-03T06:57:15.130Z,9.72
2019-05-03T06:59:45.296Z,9.67
2019-05-03T07:02:21.637Z,9.63
2019-05-03T07:04:51.667Z,9.60
2019-05-03T07:07:27.770Z,9.57
2019-05-03T07:09:55.945Z,9.56
2019-05-03T07:12:25.010Z,9.56
2019-05-03T07:14:54.881Z,9.58
2019-05-03T07:17:24.803Z,9.57
2019-05-03T07:19:54.632Z,9.64
2019-05-03T07:22:24.440Z,9.68
2019-05-03T07:24:54.631Z,9.75
2019-05-03T07:27:24.810Z,9.75
2019-05-03T07:29:55.495Z,9.79
2019-05-03T07:32:24.714Z,9.87
2019-05-03T07:34:55.478Z,9.90
2019-05-03T07:37:24.609Z,9.93
2019-05-03T07:39:53.049Z,9.87
2019-05-03T07:42:21.435Z,9.85
2019-05-03T07:44:49.896Z,9.86
2019-05-03T07:47:18.339Z,9.91
2019-05-03T07:49:46.712Z,9.93
2019-05-03T07:52:15.108Z,10.02
2019-05-03T07:54:45.180Z,10.04
2019-05-03T07:57:25.488Z,10.19
2019-05-03T07:59:55.666Z,10.23
2019-05-03T08:02:26.855Z,10.22
2019-05-03T08:04:54.862Z,10.13
2019-05-03T08:07:25.508Z,10.01
2019-05-03T08:09:55.514Z,9.92
2019-05-03T08:12:24.677Z,9.86
2019-05-03T08:14:55.099Z,9.84
2019-05-03T08:17:25.361Z,9.83
2019-05-03T08:19:55.210Z,9.91
2019-05-03T08:22:25.620Z,10.06
2019-05-03T08:24:55.534Z,10.16
2019-05-03T08:27:25.148Z,10.19
2019-05-03T08:29:55.665Z,10.22
2019-05-03T08:32:28.443Z,10.22
2019-05-03T08:35:15.237Z,10.23
2019-05-03T08:37:45.480Z,10.22
2019-05-03T08:40:15.590Z,10.24
2019-05-03T08:42:44.500Z,10.27
2019-05-03T08:45:14.827Z,10.32
2019-05-03T08:47:45.046Z,10.37
2019-05-03T08:50:20.684Z,10.39
2019-05-03T08:52:45.232Z,10.42
2019-05-03T08:55:15.842Z,10.46
2019-05-03T08:57:44.917Z,10.45
2019-05-03T09:00:15.643Z,10.45
2019-05-03T09:02:44.759Z,10.44
2019-05-03T09:05:15.306Z,10.49
2019-05-03T09:07:44.740Z,10.50
2019-05-03T09:10:16.769Z,10.45
2019-05-03T09:13:05.966Z,10.47
2019-05-03T09:15:35.082Z,10.46
2019-05-03T09:18:04.816Z,10.41
2019-05-03T09:20:35.572Z,10.40
2019-05-03T09:23:05.357Z,10.42
2019-05-03T09:25:35.508Z,10.33
2019-05-03T09:28:04.770Z,10.25
2019-05-03T09:30:35.554Z,10.24
2019-05-03T09:33:05.998Z,10.26
2019-05-03T09:35:35.913Z,10.30
2019-05-03T09:38:05.752Z,10.46
2019-05-03T09:40:35.259Z,10.53
2019-05-03T09:43:04.549Z,10.50
2019-05-03T09:45:35.122Z,10.60
2019-05-03T09:48:05.443Z,10.64
2019-05-03T09:50:35.678Z,10.61
2019-05-03T09:53:05.482Z,10.78
2019-05-03T09:55:41.189Z,10.86
2019-05-03T09:58:09.580Z,11.05
2019-05-03T10:00:37.981Z,11.01
2019-05-03T10:03:06.373Z,11.15
2019-05-03T10:05:35.297Z,11.34
2019-05-03T10:08:05.068Z,11.63
2019-05-03T10:10:35.727Z,11.88
2019-05-03T10:13:13.185Z,12.06
2019-05-03T10:15:41.038Z,12.22
2019-05-03T10:18:13.543Z,12.28
2019-05-03T10:20:45.117Z,12.33
2019-05-03T10:23:15.283Z,12.41
2019-05-03T10:25:45.499Z,12.45
2019-05-03T10:28:15.301Z,12.56
2019-05-03T10:30:46.989Z,12.70
2019-05-03T10:33:20.539Z,12.82
2019-05-03T10:35:50.894Z,13.01
2019-05-03T10:38:24.615Z,13.14
2019-05-03T10:40:56.415Z,13.11
2019-05-03T10:43:28.666Z,12.92
2019-05-03T10:45:57.078Z,12.60
2019-05-03T10:48:29.115Z,12.67
2019-05-03T10:51:00.915Z,12.77
2019-05-03T10:53:39.598Z,12.72
2019-05-03T10:56:23.212Z,12.72
2019-05-03T10:58:56.855Z,12.64
2019-05-03T11:01:31.099Z,12.56
2019-05-03T11:04:01.573Z,12.47
2019-05-03T11:06:35.372Z,12.41
2019-05-03T11:09:08.568Z,12.36
2019-05-03T11:11:40.828Z,12.37
2019-05-03T11:14:14.749Z,12.45
2019-05-03T11:16:46.307Z,12.58
2019-05-03T11:19:18.498Z,12.77
2019-05-03T11:21:49.557Z,12.92
2019-05-03T11:24:23.549Z,12.87
2019-05-03T11:26:56.496Z,12.76
2019-05-03T11:29:26.824Z,12.72
2019-05-03T11:32:14.892Z,12.68
2019-05-03T11:35:01.712Z,12.75
2019-05-03T11:37:40.588Z,12.82
2019-05-03T11:40:12.833Z,12.92
2019-05-03T11:42:45.383Z,13.08
2019-05-03T11:45:17.789Z,13.15
2019-05-03T11:47:48.470Z,13.19
2019-05-03T11:50:19.533Z,13.01
2019-05-03T11:52:51.238Z,13.22
2019-05-03T11:55:19.613Z,13.35
2019-05-03T11:57:48.083Z,13.44
2019-05-03T12:00:19.699Z,13.48
2019-05-03T12:02:49.855Z,13.51
2019-05-03T12:05:25.346Z,13.52
2019-05-03T12:07:55.114Z,13.46
2019-05-03T12:10:36.368Z,13.44
2019-05-03T12:12:58.290Z,13.40
2019-05-03T12:15:28.720Z,13.34
2019-05-03T12:18:01.615Z,13.37
2019-05-03T12:20:33.340Z,13.40
2019-05-03T12:23:08.555Z,13.47
2019-05-03T12:25:41.434Z,13.44
2019-05-03T12:28:12.212Z,13.40
2019-05-03T12:30:44.749Z,13.43
2019-05-03T12:33:17.673Z,13.49
2019-05-03T12:35:46.391Z,13.53
2019-05-03T12:38:19.383Z,13.69
2019-05-03T12:40:50.653Z,13.82
2019-05-03T12:43:23.057Z,13.88
2019-05-03T12:45:54.256Z,13.93
2019-05-03T12:48:24.577Z,14.03
2019-05-03T12:50:56.991Z,14.10
2019-05-03T12:53:29.250Z,14.09
2019-05-03T12:55:57.912Z,14.04
2019-05-03T12:58:47.336Z,14.04
2019-05-03T13:01:40.716Z,14.13
2019-05-03T13:04:05.848Z,14.18
2019-05-03T13:06:38.138Z,14.08
2019-05-03T13:09:10.471Z,13.92
2019-05-03T13:11:51.912Z,13.50
2019-05-03T13:14:15.711Z,13.76
2019-05-03T13:16:45.818Z,13.63
2019-05-03T13:19:15.203Z,13.63
2019-05-03T13:21:46.060Z,13.68
2019-05-03T13:24:22.891Z,13.69
2019-05-03T13:26:46.438Z,13.67
2019-05-03T13:29:19.201Z,13.70
2019-05-03T13:31:59.227Z,13.64
2019-05-03T13:34:24.846Z,13.64
2019-05-03T13:36:57.103Z,13.69
2019-05-03T13:39:28.347Z,13.74
2019-05-03T13:42:20.117Z,13.77
2019-05-03T13:44:50.299Z,13.46
2019-05-03T13:47:22.859Z,13.77
2019-05-03T13:49:55.174Z,13.79
2019-05-03T13:52:25.086Z,13.89
2019-05-03T13:54:54.594Z,14.05
2019-05-03T13:57:24.601Z,14.23
2019-05-03T13:59:54.962Z,14.34
2019-05-03T14:02:23.071Z,14.32
2019-05-03T14:04:52.934Z,14.19
2019-05-03T14:07:21.384Z,14.05
2019-05-03T14:09:49.770Z,14.10
2019-05-03T14:12:18.155Z,14.14
2019-05-03T14:14:55.363Z,14.24
2019-05-03T14:17:25.411Z,14.27
2019-05-03T14:20:01.327Z,14.13
2019-05-03T14:22:31.337Z,14.10
2019-05-03T14:24:59.753Z,14.13
2019-05-03T14:27:28.139Z,14.17
2019-05-03T14:29:56.531Z,14.21
2019-05-03T14:32:28.704Z,14.20
2019-05-03T14:34:55.037Z,14.07
2019-05-03T14:37:23.418Z,13.89
2019-05-03T14:39:51.806Z,13.86
2019-05-03T14:42:20.192Z,13.87
2019-05-03T14:44:48.613Z,13.94
2019-05-03T14:47:16.995Z,13.96
2019-05-03T14:49:45.393Z,13.95
2019-05-03T14:52:14.721Z,13.95
2019-05-03T14:54:45.126Z,13.89
2019-05-03T14:57:18.105Z,13.85
2019-05-03T15:00:03.394Z,13.87
2019-05-03T15:02:51.143Z,13.91
2019-05-03T15:05:18.803Z,14.02
2019-05-03T15:07:47.186Z,13.97
2019-05-03T15:10:15.676Z,13.93
2019-05-03T15:12:45.252Z,13.92
2019-05-03T15:15:14.749Z,13.89
2019-05-03T15:17:45.299Z,13.90
2019-05-03T15:20:14.815Z,13.89
2019-05-03T15:22:45.299Z,13.89
2019-05-03T15:25:13.747Z,13.88
2019-05-03T15:27:42.197Z,13.83
2019-05-03T15:30:10.920Z,13.79
2019-05-03T15:32:39.301Z,13.77
2019-05-03T15:35:08.139Z,13.76
2019-05-03T15:37:36.524Z,13.69
2019-05-03T15:40:08.080Z,13.70
2019-05-03T15:42:38.189Z,13.69
2019-05-03T15:45:25.382Z,13.71
2019-05-03T15:48:01.174Z,13.73
2019-05-03T15:50:29.562Z,13.74
2019-05-03T15:52:57.948Z,13.71
2019-05-03T15:55:26.326Z,13.64
2019-05-03T15:57:55.262Z,13.50
2019-05-03T16:00:24.448Z,13.45
2019-05-03T16:02:54.709Z,13.45
2019-05-03T16:05:24.930Z,13.36
2019-05-03T16:07:55.170Z,13.21
2019-05-03T16:10:24.937Z,13.14
2019-05-03T16:12:54.562Z,12.99
2019-05-03T16:15:24.571Z,12.98
2019-05-03T16:17:54.767Z,12.90
2019-05-03T16:20:25.123Z,12.89
2019-05-03T16:22:54.488Z,12.89
2019-05-03T16:25:24.924Z,12.88
2019-05-03T16:27:55.339Z,12.93
2019-05-03T16:30:45.409Z,12.95
2019-05-03T16:33:26.238Z,12.92
2019-05-03T16:35:44.525Z,12.87
2019-05-03T16:38:12.955Z,12.86
2019-05-03T16:40:41.333Z,12.84
2019-05-03T16:43:09.754Z,12.84
2019-05-03T16:45:38.140Z,12.82
2019-05-03T16:48:06.613Z,12.75
2019-05-03T16:50:35.021Z,12.68
2019-05-03T16:53:05.442Z,12.62
2019-05-03T16:55:35.185Z,12.63
2019-05-03T16:58:03.815Z,12.59
2019-05-03T17:00:32.202Z,12.55
2019-05-03T17:03:00.580Z,12.55
2019-05-03T17:05:45.685Z,12.56
2019-05-03T17:08:21.334Z,12.58
2019-05-03T17:10:51.363Z,12.58
2019-05-03T17:13:19.757Z,12.51
2019-05-03T17:15:48.178Z,12.46
2019-05-03T17:18:17.264Z,12.41
2019-05-03T17:20:45.813Z,12.42
2019-05-03T17:23:15.478Z,12.40
2019-05-03T17:25:44.488Z,12.36
2019-05-03T17:28:13.065Z,12.36
2019-05-03T17:30:41.449Z,12.32
2019-05-03T17:33:09.909Z,12.27
2019-05-03T17:35:38.371Z,12.24
2019-05-03T17:38:06.767Z,12.20
2019-05-03T17:40:36.776Z,12.23
2019-05-03T17:43:06.801Z,12.27
2019-05-03T17:45:38.030Z,12.33
2019-05-03T17:48:06.500Z,12.26
2019-05-03T17:50:35.278Z,12.11
2019-05-03T17:53:05.327Z,12.07
2019-05-03T17:55:51.683Z,12.02
2019-05-03T17:58:21.710Z,11.94
2019-05-03T18:01:05.529Z,11.83
2019-05-03T18:03:35.220Z,11.85
2019-05-03T18:06:08.050Z,11.85
2019-05-03T18:08:38.177Z,11.78
2019-05-03T18:11:16.920Z,11.76
2019-05-03T18:13:45.303Z,11.73
2019-05-03T18:16:13.681Z,11.66
2019-05-03T18:18:42.216Z,11.61
2019-05-03T18:21:10.825Z,11.57
2019-05-03T18:23:39.214Z,11.56
2019-05-03T18:26:07.671Z,11.53
2019-05-03T18:28:36.094Z,11.55
2019-05-03T18:31:05.435Z,11.57
2019-05-03T18:33:34.881Z,11.21
2019-05-03T18:36:05.439Z,11.55
2019-05-03T18:38:35.249Z,11.58
2019-05-03T18:41:04.639Z,11.60
2019-05-03T18:43:34.713Z,11.64
2019-05-03T18:46:07.425Z,11.66
2019-05-03T18:48:35.879Z,11.68
2019-05-03T18:51:05.418Z,11.69
2019-05-03T18:53:34.456Z,11.67
2019-05-03T18:56:04.614Z,11.63
2019-05-03T18:58:32.948Z,11.60
2019-05-03T19:01:01.336Z,11.59
2019-05-03T19:03:29.718Z,11.57
2019-05-03T19:05:59.814Z,11.55
2019-05-03T19:08:35.614Z,11.53
2019-05-03T19:11:08.419Z,11.50
2019-05-03T19:13:41.286Z,11.49
2019-05-03T19:16:10.262Z,11.50
2019-05-03T19:18:40.213Z,11.48
2019-05-03T19:21:08.597Z,11.45
2019-05-03T19:23:36.979Z,11.43
2019-05-03T19:26:05.665Z,11.41
2019-05-03T19:28:35.435Z,11.39
2019-05-03T19:31:05.467Z,11.38
2019-05-03T19:33:34.810Z,11.37
2019-05-03T19:36:04.509Z,11.37
2019-05-03T19:38:34.982Z,11.36
2019-05-03T19:41:03.025Z,11.34
2019-05-03T19:43:31.413Z,11.34
2019-05-03T19:45:59.798Z,11.32
2019-05-03T19:48:28.181Z,11.31
2019-05-03T19:50:56.571Z,11.29
2019-05-03T19:53:29.258Z,11.29
2019-05-03T19:55:57.862Z,11.27
2019-05-03T19:58:26.199Z,11.23
2019-05-03T20:00:59.097Z,11.21
2019-05-03T20:03:29.118Z,11.19
2019-05-03T20:06:04.960Z,11.15
2019-05-03T20:08:37.591Z,11.14
2019-05-03T20:11:18.447Z,11.10
2019-05-03T20:13:46.835Z,11.03
2019-05-03T20:16:15.665Z,10.98
2019-05-03T20:18:45.443Z,10.98
2019-05-03T20:21:14.934Z,10.94
2019-05-03T20:23:44.769Z,10.90
2019-05-03T20:26:14.976Z,10.88
2019-05-03T20:28:44.855Z,10.86
2019-05-03T20:31:13.570Z,10.86
2019-05-03T20:33:42.065Z,10.85
2019-05-03T20:36:10.465Z,10.83
2019-05-03T20:38:38.845Z,10.82
2019-05-03T20:41:07.243Z,10.81
2019-05-03T20:43:49.144Z,10.82
2019-05-03T20:46:19.187Z,10.83
2019-05-03T20:48:49.285Z,10.82
2019-05-03T20:51:17.679Z,10.47
2019-05-03T20:53:46.064Z,10.81
2019-05-03T20:56:15.431Z,10.78
2019-05-03T20:58:44.656Z,10.77
2019-05-03T21:01:15.145Z,10.75
2019-05-03T21:03:44.977Z,10.71
2019-05-03T21:06:18.233Z,10.71
2019-05-03T21:08:53.592Z,10.37
2019-05-03T21:11:22.153Z,10.37
2019-05-03T21:13:50.538Z,10.67
2019-05-03T21:16:26.389Z,10.66
2019-05-03T21:18:59.085Z,10.64
2019-05-03T21:21:36.303Z,10.62
2019-05-03T21:24:18.279Z,10.27
2019-05-03T21:26:46.672Z,10.59
2019-05-03T21:29:15.242Z,10.56
2019-05-03T21:31:44.551Z,10.54
2019-05-03T21:34:14.638Z,10.52
2019-05-03T21:36:45.205Z,10.51
2019-05-03T21:39:14.642Z,10.48
2019-05-03T21:41:44.638Z,10.45
2019-05-03T21:44:15.418Z,10.42
2019-05-03T21:46:45.549Z,10.38
2019-05-03T21:49:21.781Z,10.38
2019-05-03T21:51:50.164Z,10.34
2019-05-03T21:54:18.558Z,10.32
2019-05-03T21:56:47.010Z,10.28
2019-05-03T21:59:15.399Z,10.25
2019-05-03T22:01:45.656Z,10.23
2019-05-03T22:04:15.663Z,10.21
2019-05-03T22:06:44.462Z,10.20
2019-05-03T22:09:12.952Z,10.15
2019-05-03T22:11:41.345Z,10.12
2019-05-03T22:14:11.375Z,10.07
2019-05-03T22:16:45.002Z,10.07
2019-05-03T22:19:16.288Z,10.03
2019-05-03T22:21:45.374Z,10.02
2019-05-03T22:24:21.328Z,10.00
2019-05-03T22:26:57.036Z,9.97
2019-05-03T22:29:25.662Z,9.94
2019-05-03T22:31:54.836Z,9.51
2019-05-03T22:34:25.492Z,9.85
2019-05-03T22:36:54.863Z,9.85
2019-05-03T22:39:25.062Z,9.82
2019-05-03T22:41:53.527Z,9.77
2019-05-03T22:44:21.914Z,9.73
2019-05-03T22:46:50.293Z,9.70
2019-05-03T22:49:18.688Z,9.66
2019-05-03T22:51:47.067Z,9.65
2019-05-03T22:54:15.588Z,9.64
2019-05-03T22:56:44.741Z,9.63
2019-05-03T22:59:14.715Z,9.64
2019-05-03T23:01:45.511Z,9.65
2019-05-03T23:04:14.681Z,9.64
2019-05-03T23:06:46.711Z,9.61
2019-05-03T23:09:15.704Z,9.59
2019-05-03T23:11:44.788Z,9.53
2019-05-03T23:14:15.051Z,9.50
2019-05-03T23:16:44.803Z,9.49
2019-05-03T23:19:14.905Z,9.49
2019-05-03T23:21:54.441Z,9.50
2019-05-03T23:24:24.689Z,9.48
2019-05-03T23:26:53.195Z,9.45
2019-05-03T23:29:21.899Z,9.41
2019-05-03T23:31:50.241Z,9.35
2019-05-03T23:34:18.628Z,9.29
2019-05-03T23:36:47.015Z,9.22
2019-05-03T23:39:15.407Z,9.17
2019-05-03T23:41:43.790Z,9.13
2019-05-03T23:44:12.251Z,9.12
2019-05-03T23:46:42.283Z,9.08
2019-05-03T23:49:10.748Z,9.04
2019-05-03T23:51:49.550Z,9.02
2019-05-03T23:54:18.003Z,8.96
2019-05-03T23:56:46.398Z,8.89
2019-05-03T23:59:15.016Z,8.83
